sensor_id;sensor_type;location;lat;lon;timestamp;pressure;altitude;pressure_sealevel;temperature;humidity
35443;BME280;21561;55.654;37.592;2023-06-22T00:01:46;100065.53;;;14.40;49.76
35443;BME280;21561;55.654;37.592;2023-06-22T00:04:13;100066.34;;;14.45;50.54
35443;BME280;21561;55.654;37.592;2023-06-22T00:06:40;100055.97;;;14.39;49.90
35443;BME280;21561;55.654;37.592;2023-06-22T00:09:07;100071.78;;;14.29;51.48
35443;BME280;21561;55.654;37.592;2023-06-22T00:11:34;100076.31;;;14.20;51.87
35443;BME280;21561;55.654;37.592;2023-06-22T00:14:01;100064.97;;;14.19;50.31
35443;BME280;21561;55.654;37.592;2023-06-22T00:16:28;100041.38;;;14.28;49.93
35443;BME280;21561;55.654;37.592;2023-06-22T00:18:55;100028.25;;;14.30;49.63
35443;BME280;21561;55.654;37.592;2023-06-22T00:21:22;100042.13;;;14.33;50.36
35443;BME280;21561;55.654;37.592;2023-06-22T00:23:49;100021.25;;;14.33;49.80
35443;BME280;21561;55.654;37.592;2023-06-22T00:26:16;100006.44;;;14.36;49.43
35443;BME280;21561;55.654;37.592;2023-06-22T00:28:44;100015.97;;;14.37;50.71
35443;BME280;21561;55.654;37.592;2023-06-22T00:31:11;100002.06;;;14.38;49.09
35443;BME280;21561;55.654;37.592;2023-06-22T00:33:38;100002.88;;;14.41;49.66
35443;BME280;21561;55.654;37.592;2023-06-22T00:36:05;99981.00;;;14.47;48.79
35443;BME280;21561;55.654;37.592;2023-06-22T00:38:34;99974.00;;;14.49;48.60
35443;BME280;21561;55.654;37.592;2023-06-22T00:41:01;99963.50;;;14.52;48.41
35443;BME280;21561;55.654;37.592;2023-06-22T00:43:28;99961.69;;;14.57;48.53
35443;BME280;21561;55.654;37.592;2023-06-22T00:45:56;99951.13;;;14.63;47.86
35443;BME280;21561;55.654;37.592;2023-06-22T00:48:23;99956.41;;;14.60;49.01
35443;BME280;21561;55.654;37.592;2023-06-22T00:50:51;99940.75;;;14.59;48.03
35443;BME280;21561;55.654;37.592;2023-06-22T00:53:20;99943.41;;;14.57;48.66
35443;BME280;21561;55.654;37.592;2023-06-22T00:55:48;99952.13;;;14.55;49.18
35443;BME280;21561;55.654;37.592;2023-06-22T00:58:18;99943.44;;;14.54;49.35
35443;BME280;21561;55.654;37.592;2023-06-22T01:00:49;99933.88;;;14.53;48.76
35443;BME280;21561;55.654;37.592;2023-06-22T01:03:16;99949.50;;;14.56;49.35
35443;BME280;21561;55.654;37.592;2023-06-22T01:05:46;99938.25;;;14.52;48.80
35443;BME280;21561;55.654;37.592;2023-06-22T01:08:31;99936.50;;;14.51;49.15
35443;BME280;21561;55.654;37.592;2023-06-22T01:18:52;99920.97;;;14.45;48.79
35443;BME280;21561;55.654;37.592;2023-06-22T01:21:22;99921.81;;;14.47;49.22
35443;BME280;21561;55.654;37.592;2023-06-22T01:23:56;99920.13;;;14.45;49.11
35443;BME280;21561;55.654;37.592;2023-06-22T01:29:20;99912.41;;;14.37;49.11
35443;BME280;21561;55.654;37.592;2023-06-22T01:31:48;99912.41;;;14.37;49.30
35443;BME280;21561;55.654;37.592;2023-06-22T01:34:16;99894.06;;;14.42;49.21
35443;BME280;21561;55.654;37.592;2023-06-22T01:36:45;99894.00;;;14.46;49.53
35443;BME280;21561;55.654;37.592;2023-06-22T01:39:13;99899.28;;;14.42;49.99
35443;BME280;21561;55.654;37.592;2023-06-22T01:41:41;99895.91;;;14.37;50.19
35443;BME280;21561;55.654;37.592;2023-06-22T01:44:09;99895.09;;;14.33;50.38
35443;BME280;21561;55.654;37.592;2023-06-22T01:46:38;99885.44;;;14.37;49.87
35443;BME280;21561;55.654;37.592;2023-06-22T01:49:06;99879.19;;;14.45;50.27
35443;BME280;21561;55.654;37.592;2023-06-22T01:51:33;99848.63;;;14.52;49.76
35443;BME280;21561;55.654;37.592;2023-06-22T01:54:01;99838.09;;;14.55;49.02
35443;BME280;21561;55.654;37.592;2023-06-22T01:56:28;99834.59;;;14.56;49.02
35443;BME280;21561;55.654;37.592;2023-06-22T01:59:08;99830.22;;;14.60;49.12
35443;BME280;21561;55.654;37.592;2023-06-22T02:01:43;99831.16;;;14.54;49.31
35443;BME280;21561;55.654;37.592;2023-06-22T02:04:21;99829.44;;;14.53;49.28
35443;BME280;21561;55.654;37.592;2023-06-22T02:06:51;99836.41;;;14.52;49.53
35443;BME280;21561;55.654;37.592;2023-06-22T02:09:23;99824.22;;;14.53;49.19
35443;BME280;21561;55.654;37.592;2023-06-22T02:11:54;99818.06;;;14.57;49.24
35443;BME280;21561;55.654;37.592;2023-06-22T02:14:24;99809.28;;;14.61;49.10
35443;BME280;21561;55.654;37.592;2023-06-22T02:16:52;99805.69;;;14.67;49.48
35443;BME280;21561;55.654;37.592;2023-06-22T02:19:23;99788.19;;;14.70;49.43
35443;BME280;21561;55.654;37.592;2023-06-22T02:21:50;99806.72;;;14.58;50.25
35443;BME280;21561;55.654;37.592;2023-06-22T02:24:17;99797.25;;;14.52;50.50
35443;BME280;21561;55.654;37.592;2023-06-22T02:26:44;99787.75;;;14.50;50.58
35443;BME280;21561;55.654;37.592;2023-06-22T02:29:12;99782.56;;;14.47;50.63
35443;BME280;21561;55.654;37.592;2023-06-22T02:31:39;99780.78;;;14.49;51.19
35443;BME280;21561;55.654;37.592;2023-06-22T02:34:06;99766.91;;;14.47;51.09
35443;BME280;21561;55.654;37.592;2023-06-22T02:36:33;99765.25;;;14.43;51.44
35443;BME280;21561;55.654;37.592;2023-06-22T02:39:00;99763.59;;;14.39;52.05
35443;BME280;21561;55.654;37.592;2023-06-22T02:41:28;99754.09;;;14.36;52.19
35443;BME280;21561;55.654;37.592;2023-06-22T02:43:55;99730.47;;;14.41;51.63
35443;BME280;21561;55.654;37.592;2023-06-22T02:46:22;99728.78;;;14.40;52.03
35443;BME280;21561;55.654;37.592;2023-06-22T02:48:49;99725.25;;;14.41;52.46
35443;BME280;21561;55.654;37.592;2023-06-22T02:51:16;99699.88;;;14.47;51.55
35443;BME280;21561;55.654;37.592;2023-06-22T02:53:43;99690.09;;;14.57;51.52
35443;BME280;21561;55.654;37.592;2023-06-22T02:56:13;99676.03;;;14.64;51.58
35443;BME280;21561;55.654;37.592;2023-06-22T02:58:40;99670.72;;;14.67;51.75
35443;BME280;21561;55.654;37.592;2023-06-22T03:01:07;99671.53;;;14.69;52.14
35443;BME280;21561;55.654;37.592;2023-06-22T03:03:34;99662.75;;;14.74;52.45
35443;BME280;21561;55.654;37.592;2023-06-22T03:06:01;99670.59;;;14.74;52.97
35443;BME280;21561;55.654;37.592;2023-06-22T03:08:29;99659.25;;;14.75;53.12
35443;BME280;21561;55.654;37.592;2023-06-22T03:10:56;99632.81;;;14.87;51.84
35443;BME280;21561;55.654;37.592;2023-06-22T03:13:23;99645.81;;;14.90;53.25
35443;BME280;21561;55.654;37.592;2023-06-22T03:15:50;99632.53;;;14.99;52.57
35443;BME280;21561;55.654;37.592;2023-06-22T03:18:17;99630.56;;;15.07;52.87
35443;BME280;21561;55.654;37.592;2023-06-22T03:20:44;99632.25;;;15.10;53.12
35443;BME280;21561;55.654;37.592;2023-06-22T03:23:11;99601.72;;;15.11;52.31
35443;BME280;21561;55.654;37.592;2023-06-22T03:25:38;99612.78;;;15.22;53.03
35443;BME280;21561;55.654;37.592;2023-06-22T03:28:05;99554.22;;;15.29;50.20
35443;BME280;21561;55.654;37.592;2023-06-22T03:30:32;99579.16;;;15.39;51.42
35443;BME280;21561;55.654;37.592;2023-06-22T03:32:59;99570.13;;;15.51;51.02
35443;BME280;21561;55.654;37.592;2023-06-22T03:35:27;99514.97;;;15.59;48.04
35443;BME280;21561;55.654;37.592;2023-06-22T03:37:54;99538.28;;;15.66;48.96
35443;BME280;21561;55.654;37.592;2023-06-22T03:40:21;99516.38;;;15.71;48.35
35443;BME280;21561;55.654;37.592;2023-06-22T03:42:48;99490.03;;;15.78;46.87
35443;BME280;21561;55.654;37.592;2023-06-22T03:45:15;99513.28;;;15.88;47.67
35443;BME280;21561;55.654;37.592;2023-06-22T03:47:42;99595.16;;;15.91;50.71
35443;BME280;21561;55.654;37.592;2023-06-22T03:50:09;99532.25;;;15.94;48.57
35443;BME280;21561;55.654;37.592;2023-06-22T03:52:36;99546.84;;;16.03;49.40
35443;BME280;21561;55.654;37.592;2023-06-22T03:55:03;99527.50;;;16.07;48.88
35443;BME280;21561;55.654;37.592;2023-06-22T03:57:33;99502.66;;;16.20;47.93
35443;BME280;21561;55.654;37.592;2023-06-22T04:00:00;99454.34;;;16.29;46.18
35443;BME280;21561;55.654;37.592;2023-06-22T04:02:31;99414.72;;;16.40;44.99
35443;BME280;21561;55.654;37.592;2023-06-22T04:04:58;99398.69;;;16.49;44.41
35443;BME280;21561;55.654;37.592;2023-06-22T04:07:29;99393.97;;;16.59;44.20
35443;BME280;21561;55.654;37.592;2023-06-22T04:09:56;99394.38;;;16.72;43.95
35443;BME280;21561;55.654;37.592;2023-06-22T04:12:23;99380.16;;;16.79;43.51
35443;BME280;21561;55.654;37.592;2023-06-22T04:14:50;99355.34;;;16.89;43.23
35443;BME280;21561;55.654;37.592;2023-06-22T04:17:17;99348.91;;;16.98;42.50
35443;BME280;21561;55.654;37.592;2023-06-22T04:19:46;99353.06;;;17.04;42.73
35443;BME280;21561;55.654;37.592;2023-06-22T04:22:12;99338.91;;;17.08;42.24
35443;BME280;21561;55.654;37.592;2023-06-22T04:24:39;99347.47;;;17.13;42.54
35443;BME280;21561;55.654;37.592;2023-06-22T04:27:06;99333.19;;;17.20;42.15
35443;BME280;21561;55.654;37.592;2023-06-22T04:29:33;99352.13;;;17.28;42.18
35443;BME280;21561;55.654;37.592;2023-06-22T04:32:00;99355.38;;;17.33;42.58
35443;BME280;21561;55.654;37.592;2023-06-22T04:34:32;99369.06;;;17.42;42.52
35443;BME280;21561;55.654;37.592;2023-06-22T04:36:59;99349.47;;;17.50;42.00
35443;BME280;21561;55.654;37.592;2023-06-22T04:39:25;99330.84;;;17.56;41.59
35443;BME280;21561;55.654;37.592;2023-06-22T04:41:53;99339.53;;;17.59;41.67
35443;BME280;21561;55.654;37.592;2023-06-22T04:44:26;99356.81;;;17.64;41.63
35443;BME280;21561;55.654;37.592;2023-06-22T04:46:56;99336.59;;;17.66;41.47
35443;BME280;21561;55.654;37.592;2023-06-22T04:49:27;99351.97;;;17.75;41.71
35443;BME280;21561;55.654;37.592;2023-06-22T04:52:00;99347.94;;;17.89;41.77
35443;BME280;21561;55.654;37.592;2023-06-22T04:54:28;99363.16;;;18.01;42.32
35443;BME280;21561;55.654;37.592;2023-06-22T04:56:55;99338.34;;;18.08;41.64
35443;BME280;21561;55.654;37.592;2023-06-22T04:59:27;99341.50;;;18.17;41.81
35443;BME280;21561;55.654;37.592;2023-06-22T05:01:59;99343.94;;;18.21;41.80
35443;BME280;21561;55.654;37.592;2023-06-22T05:04:28;99358.72;;;18.24;42.04
35443;BME280;21561;55.654;37.592;2023-06-22T05:06:59;99360.56;;;18.22;41.77
35443;BME280;21561;55.654;37.592;2023-06-22T05:09:30;99381.69;;;18.19;42.08
35443;BME280;21561;55.654;37.592;2023-06-22T05:11:57;99386.75;;;18.23;42.13
35443;BME280;21561;55.654;37.592;2023-06-22T05:14:24;99405.72;;;18.30;42.30
35443;BME280;21561;55.654;37.592;2023-06-22T05:16:51;99358.72;;;18.24;41.36
35443;BME280;21561;55.654;37.592;2023-06-22T05:19:25;99385.03;;;18.22;41.74
35443;BME280;21561;55.654;37.592;2023-06-22T05:21:58;99385.94;;;18.21;41.92
35443;BME280;21561;55.654;37.592;2023-06-22T05:24:25;99403.59;;;18.18;42.22
35443;BME280;21561;55.654;37.592;2023-06-22T05:26:51;99395.88;;;18.15;42.06
35443;BME280;21561;55.654;37.592;2023-06-22T05:29:18;99392.47;;;18.12;41.98
35443;BME280;21561;55.654;37.592;2023-06-22T05:31:45;99409.78;;;18.17;42.05
35443;BME280;21561;55.654;37.592;2023-06-22T05:34:12;99420.97;;;18.22;42.41
35443;BME280;21561;55.654;37.592;2023-06-22T05:36:39;99401.53;;;18.26;41.83
35443;BME280;21561;55.654;37.592;2023-06-22T05:39:13;99408.03;;;18.38;41.77
35443;BME280;21561;55.654;37.592;2023-06-22T05:41:41;99391.22;;;18.42;42.03
35443;BME280;21561;55.654;37.592;2023-06-22T05:44:10;99370.69;;;18.50;41.60
35443;BME280;21561;55.654;37.592;2023-06-22T05:46:40;99355.31;;;18.61;41.22
35443;BME280;21561;55.654;37.592;2023-06-22T05:49:12;99361.94;;;18.70;41.20
35443;BME280;21561;55.654;37.592;2023-06-22T05:51:39;99372.28;;;18.73;41.98
35443;BME280;21561;55.654;37.592;2023-06-22T05:54:06;99378.97;;;18.80;41.49
35443;BME280;21561;55.654;37.592;2023-06-22T05:56:34;99370.09;;;18.84;41.72
35443;BME280;21561;55.654;37.592;2023-06-22T05:59:01;99368.38;;;18.83;41.28
35443;BME280;21561;55.654;37.592;2023-06-22T06:01:28;99391.97;;;18.85;41.88
35443;BME280;21561;55.654;37.592;2023-06-22T06:03:57;99399.63;;;18.89;41.72
35443;BME280;21561;55.654;37.592;2023-06-22T06:06:24;99370.69;;;18.89;41.27
35443;BME280;21561;55.654;37.592;2023-06-22T06:08:55;99384.31;;;18.99;42.07
35443;BME280;21561;55.654;37.592;2023-06-22T06:11:22;99363.97;;;19.03;41.34
35443;BME280;21561;55.654;37.592;2023-06-22T06:13:49;99375.91;;;19.10;41.79
35443;BME280;21561;55.654;37.592;2023-06-22T06:16:16;99356.72;;;19.08;40.95
35443;BME280;21561;55.654;37.592;2023-06-22T06:18:43;99351.31;;;19.11;40.82
35443;BME280;21561;55.654;37.592;2023-06-22T06:21:10;99327.72;;;19.10;40.88
35443;BME280;21561;55.654;37.592;2023-06-22T06:23:37;99323.97;;;19.15;40.73
35443;BME280;21561;55.654;37.592;2023-06-22T06:26:04;99355.06;;;19.24;40.95
35443;BME280;21561;55.654;37.592;2023-06-22T06:28:34;99362.84;;;19.27;40.92
35443;BME280;21561;55.654;37.592;2023-06-22T06:31:02;99339.78;;;19.33;40.90
35443;BME280;21561;55.654;37.592;2023-06-22T06:33:29;99324.00;;;19.33;40.38
35443;BME280;21561;55.654;37.592;2023-06-22T06:35:56;99353.72;;;19.35;41.05
35443;BME280;21561;55.654;37.592;2023-06-22T06:38:23;99352.56;;;19.40;40.84
35443;BME280;21561;55.654;37.592;2023-06-22T06:40:50;99333.22;;;19.41;40.46
35443;BME280;21561;55.654;37.592;2023-06-22T06:43:17;99354.97;;;19.45;40.77
35443;BME280;21561;55.654;37.592;2023-06-22T06:45:43;99364.38;;;19.51;40.93
35443;BME280;21561;55.654;37.592;2023-06-22T06:48:11;99344.63;;;19.59;41.04
35443;BME280;21561;55.654;37.592;2023-06-22T06:50:38;99304.41;;;19.75;40.13
35443;BME280;21561;55.654;37.592;2023-06-22T06:53:05;99302.84;;;19.88;39.95
35443;BME280;21561;55.654;37.592;2023-06-22T06:55:32;99264.59;;;19.98;39.22
35443;BME280;21561;55.654;37.592;2023-06-22T06:58:00;99250.19;;;20.06;39.32
35443;BME280;21561;55.654;37.592;2023-06-22T07:00:27;99243.44;;;20.17;38.87
35443;BME280;21561;55.654;37.592;2023-06-22T07:02:55;99233.06;;;20.30;38.58
35443;BME280;21561;55.654;37.592;2023-06-22T07:05:22;99232.00;;;20.50;38.75
35443;BME280;21561;55.654;37.592;2023-06-22T07:07:49;99214.94;;;20.73;38.20
35443;BME280;21561;55.654;37.592;2023-06-22T07:10:16;99165.50;;;20.93;37.22
35443;BME280;21561;55.654;37.592;2023-06-22T07:12:43;99170.66;;;21.10;38.04
35443;BME280;21561;55.654;37.592;2023-06-22T07:15:11;99147.78;;;21.25;36.62
35443;BME280;21561;55.654;37.592;2023-06-22T07:17:39;99137.53;;;21.35;36.25
35443;BME280;21561;55.654;37.592;2023-06-22T07:20:09;99097.09;;;21.20;36.29
35443;BME280;21561;55.654;37.592;2023-06-22T07:22:39;99101.03;;;21.13;36.88
35443;BME280;21561;55.654;37.592;2023-06-22T07:25:07;99108.84;;;21.14;36.35
35443;BME280;21561;55.654;37.592;2023-06-22T07:27:38;99119.78;;;21.23;36.88
35443;BME280;21561;55.654;37.592;2023-06-22T07:30:07;99125.66;;;21.28;36.95
35443;BME280;21561;55.654;37.592;2023-06-22T07:32:34;99118.47;;;21.30;36.77
35443;BME280;21561;55.654;37.592;2023-06-22T07:35:02;99144.88;;;21.30;36.82
35443;BME280;21561;55.654;37.592;2023-06-22T07:37:30;99115.09;;;21.28;36.85
35443;BME280;21561;55.654;37.592;2023-06-22T07:40:00;99120.75;;;21.22;37.14
35443;BME280;21561;55.654;37.592;2023-06-22T07:42:29;99141.47;;;21.28;37.29
35443;BME280;21561;55.654;37.592;2023-06-22T07:45:00;99137.19;;;21.41;36.91
35443;BME280;21561;55.654;37.592;2023-06-22T07:47:32;99113.00;;;21.49;36.73
35443;BME280;21561;55.654;37.592;2023-06-22T07:50:03;99124.59;;;21.61;36.52
35443;BME280;21561;55.654;37.592;2023-06-22T07:52:32;99107.53;;;21.52;36.62
35443;BME280;21561;55.654;37.592;2023-06-22T07:54:59;99119.47;;;21.43;36.68
35443;BME280;21561;55.654;37.592;2023-06-22T07:57:26;99135.75;;;21.35;36.48
35443;BME280;21561;55.654;37.592;2023-06-22T08:00:00;99137.25;;;21.25;36.70
35443;BME280;21561;55.654;37.592;2023-06-22T08:02:32;99141.47;;;21.28;36.96
35443;BME280;21561;55.654;37.592;2023-06-22T08:04:59;99157.31;;;21.28;37.09
35443;BME280;21561;55.654;37.592;2023-06-22T08:07:45;99163.72;;;21.24;36.92
35443;BME280;21561;55.654;37.592;2023-06-22T08:10:15;99180.13;;;21.29;37.04
35443;BME280;21561;55.654;37.592;2023-06-22T08:12:42;99151.69;;;21.34;36.88
35443;BME280;21561;55.654;37.592;2023-06-22T08:15:10;99141.72;;;21.39;36.94
35443;BME280;21561;55.654;37.592;2023-06-22T08:17:38;99139.72;;;21.43;36.58
35443;BME280;21561;55.654;37.592;2023-06-22T08:20:07;99131.00;;;21.57;36.41
35443;BME280;21561;55.654;37.592;2023-06-22T08:22:42;99127.91;;;21.64;36.23
35443;BME280;21561;55.654;37.592;2023-06-22T08:25:10;99084.69;;;21.51;35.81
35443;BME280;21561;55.654;37.592;2023-06-22T08:27:38;99100.38;;;21.54;36.14
35443;BME280;21561;55.654;37.592;2023-06-22T08:30:06;99105.91;;;21.64;36.18
35443;BME280;21561;55.654;37.592;2023-06-22T08:32:34;99105.56;;;21.70;36.24
35443;BME280;21561;55.654;37.592;2023-06-22T08:35:02;99087.63;;;21.75;36.28
35443;BME280;21561;55.654;37.592;2023-06-22T08:37:31;99089.13;;;21.79;36.14
35443;BME280;21561;55.654;37.592;2023-06-22T08:40:04;99096.22;;;21.93;36.50
35443;BME280;21561;55.654;37.592;2023-06-22T08:42:36;99098.16;;;22.04;35.72
35443;BME280;21561;55.654;37.592;2023-06-22T08:45:03;99076.94;;;21.91;35.82
35443;BME280;21561;55.654;37.592;2023-06-22T08:47:34;99064.88;;;21.87;35.81
35443;BME280;21561;55.654;37.592;2023-06-22T08:50:01;99099.22;;;21.87;36.14
35443;BME280;21561;55.654;37.592;2023-06-22T08:52:33;99082.13;;;21.92;35.56
35443;BME280;21561;55.654;37.592;2023-06-22T08:55:01;99069.66;;;21.95;35.80
35443;BME280;21561;55.654;37.592;2023-06-22T08:57:33;99067.03;;;21.95;35.91
35443;BME280;21561;55.654;37.592;2023-06-22T09:00:00;99063.63;;;21.92;35.99
35443;BME280;21561;55.654;37.592;2023-06-22T09:02:34;99077.44;;;21.83;35.95
35443;BME280;21561;55.654;37.592;2023-06-22T09:05:03;99103.47;;;21.75;36.60
35443;BME280;21561;55.654;37.592;2023-06-22T09:07:32;99103.38;;;21.77;36.17
35443;BME280;21561;55.654;37.592;2023-06-22T09:09:59;99062.44;;;21.69;35.67
35443;BME280;21561;55.654;37.592;2023-06-22T09:12:33;99108.94;;;21.72;36.51
35443;BME280;21561;55.654;37.592;2023-06-22T09:15:01;99081.13;;;21.66;35.75
35443;BME280;21561;55.654;37.592;2023-06-22T09:17:34;99075.75;;;21.68;36.17
35443;BME280;21561;55.654;37.592;2023-06-22T09:20:03;99089.91;;;21.67;36.13
35443;BME280;21561;55.654;37.592;2023-06-22T09:22:34;99091.97;;;21.62;36.10
35443;BME280;21561;55.654;37.592;2023-06-22T09:25:01;99091.03;;;21.63;36.08
35443;BME280;21561;55.654;37.592;2023-06-22T09:27:32;99081.41;;;21.76;36.18
35443;BME280;21561;55.654;37.592;2023-06-22T09:29:59;99056.69;;;21.91;35.71
35443;BME280;21561;55.654;37.592;2023-06-22T09:32:26;99046.22;;;22.17;35.11
35443;BME280;21561;55.654;37.592;2023-06-22T09:34:53;99013.75;;;22.69;35.08
35443;BME280;21561;55.654;37.592;2023-06-22T09:37:20;98959.59;;;23.39;33.99
35443;BME280;21561;55.654;37.592;2023-06-22T09:39:47;98875.84;;;24.22;32.24
35443;BME280;21561;55.654;37.592;2023-06-22T09:42:14;98820.88;;;24.60;31.53
35443;BME280;21561;55.654;37.592;2023-06-22T09:44:41;98774.56;;;24.41;31.78
35443;BME280;21561;55.654;37.592;2023-06-22T09:47:08;98762.97;;;24.42;31.70
35443;BME280;21561;55.654;37.592;2023-06-22T09:49:35;98755.75;;;24.44;31.67
35443;BME280;21561;55.654;37.592;2023-06-22T09:52:05;98743.47;;;24.77;31.01
35443;BME280;21561;55.654;37.592;2023-06-22T09:54:32;98708.88;;;25.11;30.79
35443;BME280;21561;55.654;37.592;2023-06-22T09:57:00;98633.09;;;25.60;29.62
35443;BME280;21561;55.654;37.592;2023-06-22T09:59:27;98586.78;;;26.15;28.91
35443;BME280;21561;55.654;37.592;2023-06-22T10:01:53;98531.13;;;26.52;28.03
35443;BME280;21561;55.654;37.592;2023-06-22T10:04:20;98485.50;;;27.43;27.16
35443;BME280;21561;55.654;37.592;2023-06-22T10:06:48;98426.63;;;28.10;26.71
35443;BME280;21561;55.654;37.592;2023-06-22T10:09:15;98379.72;;;28.43;25.96
35443;BME280;21561;55.654;37.592;2023-06-22T10:11:42;98316.50;;;28.62;25.28
35443;BME280;21561;55.654;37.592;2023-06-22T10:14:08;98281.63;;;29.40;24.71
35443;BME280;21561;55.654;37.592;2023-06-22T10:16:36;98244.25;;;29.81;23.93
35443;BME280;21561;55.654;37.592;2023-06-22T10:19:03;98226.53;;;29.88;24.21
35443;BME280;21561;55.654;37.592;2023-06-22T10:21:30;98219.66;;;29.45;24.48
35443;BME280;21561;55.654;37.592;2023-06-22T10:23:57;98204.28;;;29.39;24.61
35443;BME280;21561;55.654;37.592;2023-06-22T10:26:24;98204.47;;;29.78;23.69
35443;BME280;21561;55.654;37.592;2023-06-22T10:28:51;98190.25;;;30.58;22.99
35443;BME280;21561;55.654;37.592;2023-06-22T10:31:38;98102.47;;;30.77;22.92
35443;BME280;21561;55.654;37.592;2023-06-22T10:34:05;98101.28;;;31.26;22.39
35443;BME280;21561;55.654;37.592;2023-06-22T10:36:31;98045.47;;;30.91;22.25
35443;BME280;21561;55.654;37.592;2023-06-22T10:38:58;98054.63;;;30.74;22.67
35443;BME280;21561;55.654;37.592;2023-06-22T10:41:26;98064.72;;;30.01;23.35
35443;BME280;21561;55.654;37.592;2023-06-22T10:43:56;98103.88;;;29.85;23.74
35443;BME280;21561;55.654;37.592;2023-06-22T10:46:26;98139.13;;;30.45;23.05
35443;BME280;21561;55.654;37.592;2023-06-22T10:48:54;98096.94;;;30.47;22.61
35443;BME280;21561;55.654;37.592;2023-06-22T10:51:24;98107.78;;;30.54;22.90
35443;BME280;21561;55.654;37.592;2023-06-22T10:53:52;98082.78;;;30.70;22.35
35443;BME280;21561;55.654;37.592;2023-06-22T10:56:19;98070.53;;;30.98;21.95
35443;BME280;21561;55.654;37.592;2023-06-22T10:58:46;98046.94;;;31.55;21.46
35443;BME280;21561;55.654;37.592;2023-06-22T11:01:13;98037.03;;;32.15;21.49
35443;BME280;21561;55.654;37.592;2023-06-22T11:04:00;97979.97;;;32.06;21.23
35443;BME280;21561;55.654;37.592;2023-06-22T11:06:28;97956.09;;;32.33;21.06
35443;BME280;21561;55.654;37.592;2023-06-22T11:08:55;97940.47;;;31.49;21.33
35443;BME280;21561;55.654;37.592;2023-06-22T11:11:32;97975.19;;;30.51;22.22
35443;BME280;21561;55.654;37.592;2023-06-22T11:14:00;98058.28;;;29.79;23.11
35443;BME280;21561;55.654;37.592;2023-06-22T11:16:28;98092.81;;;29.97;23.52
35443;BME280;21561;55.654;37.592;2023-06-22T11:18:55;98100.41;;;30.56;22.57
35443;BME280;21561;55.654;37.592;2023-06-22T11:21:22;98096.59;;;30.50;22.53
35443;BME280;21561;55.654;37.592;2023-06-22T11:23:48;98127.56;;;29.97;23.71
35443;BME280;21561;55.654;37.592;2023-06-22T11:26:17;98179.25;;;29.31;24.66
35443;BME280;21561;55.654;37.592;2023-06-22T11:28:44;98224.97;;;28.69;25.59
35443;BME280;21561;55.654;37.592;2023-06-22T11:31:11;98289.31;;;28.58;26.17
35443;BME280;21561;55.654;37.592;2023-06-22T11:33:42;98325.88;;;29.00;25.60
35443;BME280;21561;55.654;37.592;2023-06-22T11:36:11;98311.59;;;30.01;24.77
35443;BME280;21561;55.654;37.592;2023-06-22T11:38:39;98263.63;;;30.00;24.16
35443;BME280;21561;55.654;37.592;2023-06-22T11:41:06;98285.31;;;29.72;24.87
35443;BME280;21561;55.654;37.592;2023-06-22T11:43:34;98279.81;;;29.06;24.58
35443;BME280;21561;55.654;37.592;2023-06-22T11:46:03;98280.31;;;28.59;25.39
35443;BME280;21561;55.654;37.592;2023-06-22T11:48:30;98298.50;;;28.64;25.42
35443;BME280;21561;55.654;37.592;2023-06-22T11:50:57;98298.47;;;29.33;24.70
35443;BME280;21561;55.654;37.592;2023-06-22T11:53:26;98267.41;;;29.48;24.21
35443;BME280;21561;55.654;37.592;2023-06-22T11:55:53;98256.59;;;29.91;24.15
35443;BME280;21561;55.654;37.592;2023-06-22T11:58:22;98217.25;;;31.11;22.76
35443;BME280;21561;55.654;37.592;2023-06-22T12:00:49;98152.13;;;31.57;22.46
35443;BME280;21561;55.654;37.592;2023-06-22T12:03:19;98119.84;;;30.81;23.12
35443;BME280;21561;55.654;37.592;2023-06-22T12:05:47;98140.44;;;30.01;24.05
35443;BME280;21561;55.654;37.592;2023-06-22T12:08:14;98192.75;;;29.63;24.64
35443;BME280;21561;55.654;37.592;2023-06-22T12:10:41;98208.75;;;30.20;24.03
35443;BME280;21561;55.654;37.592;2023-06-22T12:13:07;98186.31;;;30.30;23.74
35443;BME280;21561;55.654;37.592;2023-06-22T12:15:34;98180.59;;;30.33;23.66
35443;BME280;21561;55.654;37.592;2023-06-22T12:18:02;98141.13;;;29.95;23.94
35443;BME280;21561;55.654;37.592;2023-06-22T12:20:29;98155.56;;;30.34;23.45
35443;BME280;21561;55.654;37.592;2023-06-22T12:22:57;98159.31;;;30.00;24.03
35443;BME280;21561;55.654;37.592;2023-06-22T12:25:25;98189.25;;;29.79;24.62
35443;BME280;21561;55.654;37.592;2023-06-22T12:27:52;98207.44;;;29.18;24.92
35443;BME280;21561;55.654;37.592;2023-06-22T12:30:19;98249.13;;;29.10;25.16
35443;BME280;21561;55.654;37.592;2023-06-22T12:32:46;98209.16;;;29.84;24.07
35443;BME280;21561;55.654;37.592;2023-06-22T12:35:13;98156.97;;;30.84;22.57
35443;BME280;21561;55.654;37.592;2023-06-22T12:37:41;98088.16;;;31.54;21.99
35443;BME280;21561;55.654;37.592;2023-06-22T12:40:09;98035.72;;;31.96;21.39
35443;BME280;21561;55.654;37.592;2023-06-22T12:42:37;97980.53;;;32.60;21.09
35443;BME280;21561;55.654;37.592;2023-06-22T12:45:04;97927.00;;;33.43;20.07
35443;BME280;21561;55.654;37.592;2023-06-22T12:47:32;97864.66;;;33.67;19.81
35443;BME280;21561;55.654;37.592;2023-06-22T12:49:59;97817.75;;;33.90;18.92
35443;BME280;21561;55.654;37.592;2023-06-22T12:52:32;97794.75;;;34.61;18.55
35443;BME280;21561;55.654;37.592;2023-06-22T12:54:59;97767.53;;;34.96;18.47
35443;BME280;21561;55.654;37.592;2023-06-22T12:57:26;97717.94;;;34.38;18.79
35443;BME280;21561;55.654;37.592;2023-06-22T12:59:53;97653.44;;;33.58;18.18
35443;BME280;21561;55.654;37.592;2023-06-22T13:02:20;97660.22;;;33.34;18.50
35443;BME280;21561;55.654;37.592;2023-06-22T13:04:47;97706.06;;;33.06;19.45
35443;BME280;21561;55.654;37.592;2023-06-22T13:07:14;97722.28;;;33.39;19.38